Terminal Aerodrome Forecast
Issued by NWS Upton, NY

Home | Current Version | Previous Version | Text Only | Print | Product List | Glossary On
Versions: 1 2 3 4 5 6 7 8 9 10 11 12 13 14 15 16 17 18 19 20 21 22 23 24 25 26 27 28 29
000
FTUS41 KOKX 280800 AAA
TAFJFK
TAF AMD
KJFK 280822Z 2808/2912 31015G21KT P6SM BKN150
     FM281400 32017G27KT P6SM SCT025 SCT050 SCT250
     FM282200 32012KT P6SM SCT250
     FM290100 33009KT P6SM SCT250
     FM290700 34006KT P6SM SCT250=

USA.gov is the U.S. government's official web portal to all federal, state and local government web resources and services.